Observation data for Lamesa on 08/14/2019      Previous  Date  Next       Current Mesonet Observations  Soil Data  Daily Summary Page  Observations in Plain Language
KLES 140500Z 03003KT 27/16 A3009 RMK A01 T02740162  RH  053%=      5-min Rain = 0
KLES 140505Z 03003KT 27/16 A3009 RMK A01 T02740163  RH  053%=      5-min Rain = 0
KLES 140510Z 03003KT 27/16 A3009 RMK A01 T02740163  RH  053%=      5-min Rain = 0
KLES 140515Z 04003KT 27/16 A3009 RMK A01 T02720164  RH  054%=      5-min Rain = 0
KLES 140520Z 05004KT 27/17 A301 RMK A01 T02730168  RH  055%=      5-min Rain = 0
KLES 140525Z 06006KT 28/17 A301 RMK A01 T02750172  RH  056%=      5-min Rain = 0
KLES 140530Z 07007KT 28/18 A301 RMK A01 T02770177  RH  057%=      5-min Rain = 0
KLES 140535Z 06007KT 28/18 A3009 RMK A01 T02790179  RH  058%=      5-min Rain = 0
KLES 140540Z 07009KT 28/18 A301 RMK A01 T02810180  RH  057%=      5-min Rain = 0
KLES 140545Z 07008KT 28/18 A301 RMK A01 T02820180  RH  057%=      5-min Rain = 0
KLES 140550Z 07007KT 28/18 A301 RMK A01 T02820180  RH  057%=      5-min Rain = 0
KLES 140555Z 07006KT 28/18 A301 RMK A01 T02810180  RH  057%=      5-min Rain = 0
KLES 140600Z 07006G11KT 28/18 A301 RMK A01 T02810180  RH  057%=      5-min Rain = 0
KLES 140605Z 06006KT 28/18 A301 RMK A01 T02800180  RH  057%=      5-min Rain = 0
KLES 140610Z 06006KT 28/18 A301 RMK A01 T02780180  RH  058%=      5-min Rain = 0
KLES 140615Z 06006KT 28/18 A301 RMK A01 T02770181  RH  059%=      5-min Rain = 0
KLES 140620Z 05005KT 28/18 A301 RMK A01 T02760181  RH  059%=      5-min Rain = 0
KLES 140625Z 05005KT 28/18 A301 RMK A01 T02750181  RH  059%=      5-min Rain = 0
KLES 140630Z 06004KT 27/18 A301 RMK A01 T02740180  RH  060%=      5-min Rain = 0
KLES 140635Z 05004KT 27/18 A301 RMK A01 T02720180  RH  060%=      5-min Rain = 0
KLES 140640Z 06005KT 27/18 A301 RMK A01 T02720181  RH  061%=      5-min Rain = 0
KLES 140645Z 06005KT 27/18 A301 RMK A01 T02710181  RH  061%=      5-min Rain = 0
KLES 140650Z 05005KT 27/18 A301 RMK A01 T02700181  RH  061%=      5-min Rain = 0
KLES 140655Z 06005KT 27/18 A301 RMK A01 T02690181  RH  062%=      5-min Rain = 0
KLES 140700Z 05005KT 27/18 A301 RMK A01 T02690181  RH  062%=      5-min Rain = 0
KLES 140705Z 04005KT 27/18 A301 RMK A01 T02690181  RH  062%=      5-min Rain = 0
KLES 140710Z 05005KT 27/18 A301 RMK A01 T02690181  RH  062%=      5-min Rain = 0
KLES 140715Z 06005KT 27/18 A301 RMK A01 T02670182  RH  063%=      5-min Rain = 0
KLES 140720Z 06005KT 27/18 A3009 RMK A01 T02660182  RH  063%=      5-min Rain = 0
KLES 140725Z 07006KT 27/18 A3009 RMK A01 T02650182  RH  064%=      5-min Rain = 0
KLES 140730Z 07006KT 26/18 A3009 RMK A01 T02640182  RH  064%=      5-min Rain = 0
KLES 140735Z 06005KT 26/18 A3009 RMK A01 T02630182  RH  064%=      5-min Rain = 0
KLES 140740Z 06005KT 26/18 A3009 RMK A01 T02620182  RH  065%=      5-min Rain = 0
KLES 140745Z 06005KT 26/18 A3009 RMK A01 T02610182  RH  065%=      5-min Rain = 0
KLES 140750Z 05005KT 26/18 A3009 RMK A01 T02600182  RH  065%=      5-min Rain = 0
KLES 140755Z 05005KT 26/18 A3009 RMK A01 T02610182  RH  065%=      5-min Rain = 0
KLES 140800Z 05005KT 26/18 A3009 RMK A01 T02610181  RH  065%=      5-min Rain = 0
KLES 140805Z 05007KT 26/18 A301 RMK A01 T02610182  RH  065%=      5-min Rain = 0
KLES 140810Z 04006KT 26/18 A301 RMK A01 T02610182  RH  065%=      5-min Rain = 0
KLES 140815Z 05006KT 26/18 A301 RMK A01 T02600181  RH  065%=      5-min Rain = 0
KLES 140820Z 05006KT 26/18 A301 RMK A01 T02600181  RH  065%=      5-min Rain = 0
KLES 140825Z 05005KT 26/18 A301 RMK A01 T02590181  RH  066%=      5-min Rain = 0
KLES 140830Z 05005KT 26/18 A301 RMK A01 T02570181  RH  066%=      5-min Rain = 0
KLES 140835Z 05005KT 26/18 A301 RMK A01 T02560182  RH  067%=      5-min Rain = 0
KLES 140840Z 06007KT 26/18 A301 RMK A01 T02560182  RH  067%=      5-min Rain = 0
KLES 140845Z 06007KT 26/18 A301 RMK A01 T02560183  RH  068%=      5-min Rain = 0
KLES 140850Z 06007KT 26/18 A301 RMK A01 T02550184  RH  068%=      5-min Rain = 0
KLES 140855Z 06007KT 25/19 A3009 RMK A01 T02540185  RH  069%=      5-min Rain = 0
KLES 140900Z 06008KT 25/19 A301 RMK A01 T02540185  RH  069%=      5-min Rain = 0
KLES 140905Z 06010KT 25/19 A301 RMK A01 T02540185  RH  069%=      5-min Rain = 0
KLES 140910Z 06009KT 25/19 A301 RMK A01 T02540185  RH  069%=      5-min Rain = 0
KLES 140915Z 06008KT 25/19 A301 RMK A01 T02530185  RH  070%=      5-min Rain = 0
KLES 140920Z 06007KT 25/19 A301 RMK A01 T02520185  RH  070%=      5-min Rain = 0
KLES 140925Z 06008KT 25/19 A3009 RMK A01 T02520185  RH  070%=      5-min Rain = 0
KLES 140930Z 06008KT 25/19 A3009 RMK A01 T02510185  RH  071%=      5-min Rain = 0
KLES 140935Z 05007G13KT 25/19 A3009 RMK A01 T02510185  RH  071%=      5-min Rain = 0
KLES 140940Z 05007G12KT 25/19 A3009 RMK A01 T02510186  RH  071%=      5-min Rain = 0
KLES 140945Z 06007KT 25/19 A3009 RMK A01 T02510186  RH  071%=      5-min Rain = 0
KLES 140950Z 06007G12KT 25/19 A3009 RMK A01 T02500186  RH  071%=      5-min Rain = 0
KLES 140955Z 06008KT 25/19 A3009 RMK A01 T02500185  RH  071%=      5-min Rain = 0
KLES 141000Z 05008KT 25/19 A3009 RMK A01 T02500185  RH  071%=      5-min Rain = 0
KLES 141005Z 06008KT 25/19 A3009 RMK A01 T02500185  RH  071%=      5-min Rain = 0
KLES 141010Z 06008G13KT 25/19 A3009 RMK A01 T02500185  RH  071%=      5-min Rain = 0
KLES 141015Z 06007KT 25/18 A3009 RMK A01 T02490184  RH  071%=      5-min Rain = 0
KLES 141020Z 05006KT 25/18 A3009 RMK A01 T02480184  RH  071%=      5-min Rain = 0
KLES 141025Z 05006KT 25/18 A3009 RMK A01 T02470184  RH  072%=      5-min Rain = 0
KLES 141030Z 05007KT 25/18 A3009 RMK A01 T02470184  RH  072%=      5-min Rain = 0
KLES 141035Z 05007G12KT 25/18 A301 RMK A01 T02470184  RH  072%=      5-min Rain = 0
KLES 141040Z 05007KT 25/18 A301 RMK A01 T02460184  RH  072%=      5-min Rain = 0
KLES 141045Z 05007KT 25/18 A301 RMK A01 T02460183  RH  072%=      5-min Rain = 0
KLES 141050Z 06007KT 25/18 A3011 RMK A01 T02450183  RH  072%=      5-min Rain = 0
KLES 141055Z 05008KT 25/18 A3011 RMK A01 T02450183  RH  072%=      5-min Rain = 0
KLES 141100Z 05007G12KT 25/18 A3011 RMK A01 T02450183  RH  072%=      5-min Rain = 0
KLES 141105Z 05007KT 25/18 A3011 RMK A01 T02450183  RH  073%=      5-min Rain = 0
KLES 141110Z 05006KT 24/18 A3012 RMK A01 T02440184  RH  073%=      5-min Rain = 0
KLES 141115Z 05007KT 24/18 A3012 RMK A01 T02430184  RH  073%=      5-min Rain = 0
KLES 141120Z 05007KT 24/18 A3012 RMK A01 T02430184  RH  073%=      5-min Rain = 0
KLES 141125Z 05007G12KT 24/18 A3012 RMK A01 T02430184  RH  073%=      5-min Rain = 0
KLES 141130Z 05008KT 24/18 A3012 RMK A01 T02430184  RH  073%=      5-min Rain = 0
KLES 141135Z 05007KT 24/18 A3012 RMK A01 T02430184  RH  074%=      5-min Rain = 0
KLES 141140Z 05008KT 24/18 A3012 RMK A01 T02420184  RH  074%=      5-min Rain = 0
KLES 141145Z 05007KT 24/18 A3012 RMK A01 T02410183  RH  074%=      5-min Rain = 0
KLES 141150Z 06007KT 24/18 A3013 RMK A01 T02410183  RH  074%=      5-min Rain = 0
KLES 141155Z 05007KT 24/18 A3013 RMK A01 T02400183  RH  074%=      5-min Rain = 0
KLES 141200Z 05007G12KT 24/18 A3013 RMK A01 T02390183  RH  075%=      5-min Rain = 0
KLES 141205Z 05008KT 24/18 A3014 RMK A01 T02390183  RH  075%=      5-min Rain = 0
KLES 141210Z 05013G19KT 24/18 A3014 RMK A01 T02390183  RH  074%=      5-min Rain = 0
KLES 141215Z 05011G17KT 24/18 A3014 RMK A01 T02400183  RH  074%=      5-min Rain = 0
KLES 141220Z 04009G20KT 24/18 A3015 RMK A01 T02390183  RH  075%=      5-min Rain = 0
KLES 141225Z 04014G22KT 24/18 A3015 RMK A01 T02380181  RH  074%=      5-min Rain = 0
KLES 141230Z 05014G22KT 24/18 A3015 RMK A01 T02360179  RH  074%=      5-min Rain = 0
KLES 141235Z 05015G22KT 24/18 A3015 RMK A01 T02350178  RH  074%=      5-min Rain = 0
KLES 141240Z 05012G19KT 24/18 A3015 RMK A01 T02350178  RH  074%=      5-min Rain = 0
KLES 141245Z 05012G18KT 24/18 A3015 RMK A01 T02350178  RH  074%=      5-min Rain = 0
KLES 141250Z 05010G16KT 24/18 A3015 RMK A01 T02350178  RH  074%=      5-min Rain = 0
KLES 141255Z 04011G17KT 24/18 A3015 RMK A01 T02350178  RH  074%=      5-min Rain = 0
KLES 141300Z 04011G17KT 24/18 A3015 RMK A01 T02350177  RH  074%=      5-min Rain = 0
KLES 141305Z 04010G16KT 24/18 A3015 RMK A01 T02350176  RH  073%=      5-min Rain = 0
KLES 141310Z 04009G14KT 23/18 A3015 RMK A01 T02340175  RH  073%=      5-min Rain = 0
KLES 141315Z 04011KT 23/18 A3015 RMK A01 T02340175  RH  073%=      5-min Rain = 0
KLES 141320Z 04013G20KT 23/18 A3016 RMK A01 T02340175  RH  073%=      5-min Rain = 0
KLES 141325Z 05012G19KT 23/18 A3016 RMK A01 T02340176  RH  073%=      5-min Rain = 0
KLES 141330Z 05012G18KT 23/18 A3016 RMK A01 T02340176  RH  074%=      5-min Rain = 0
KLES 141335Z 04014G20KT 23/18 A3017 RMK A01 T02340177  RH  074%=      5-min Rain = 0
KLES 141340Z 05013G21KT 23/18 A3017 RMK A01 T02340177  RH  074%=      5-min Rain = 0
KLES 141345Z 04010G18KT 24/18 A3017 RMK A01 T02370178  RH  073%=      5-min Rain = 0
KLES 141350Z 04012G18KT 24/18 A3018 RMK A01 T02370177  RH  073%=      5-min Rain = 0
KLES 141355Z 04011G20KT 24/18 A3018 RMK A01 T02370177  RH  073%=      5-min Rain = 0
KLES 141400Z 03014G21KT 24/18 A3019 RMK A01 T02400177  RH  072%=      5-min Rain = 0
KLES 141405Z 04013G22KT 24/18 A302 RMK A01 T02380176  RH  072%=      5-min Rain = 0
KLES 141410Z 03013G21KT 24/18 A302 RMK A01 T02380175  RH  072%=      5-min Rain = 0
KLES 141415Z 03015G21KT 24/17 A3021 RMK A01 T02360174  RH  072%=      5-min Rain = 0
KLES 141420Z 04012G21KT 24/18 A3021 RMK A01 T02370175  RH  072%=      5-min Rain = 0
KLES 141425Z 04012G20KT 24/18 A3021 RMK A01 T02390175  RH  071%=      5-min Rain = 0
KLES 141430Z 03012G19KT 24/17 A3021 RMK A01 T02420174  RH  069%=      5-min Rain = 0
KLES 141435Z 03013G18KT 24/17 A3021 RMK A01 T02410173  RH  069%=      5-min Rain = 0
KLES 141440Z 02013G22KT 24/17 A3021 RMK A01 T02440173  RH  068%=      5-min Rain = 0
KLES 141445Z 02014G20KT 25/17 A3022 RMK A01 T02460174  RH  068%=      5-min Rain = 0
KLES 141450Z 03013G19KT 25/17 A3022 RMK A01 T02490174  RH  067%=      5-min Rain = 0
KLES 141455Z 03015G23KT 25/18 A3021 RMK A01 T02490175  RH  067%=      5-min Rain = 0
KLES 141500Z 03014G22KT 25/18 A3022 RMK A01 T02490175  RH  067%=      5-min Rain = 0
KLES 141505Z 03014G24KT 25/18 A3022 RMK A01 T02500175  RH  067%=      5-min Rain = 0
KLES 141510Z 03012G17KT 25/18 A3022 RMK A01 T02530176  RH  066%=      5-min Rain = 0
KLES 141515Z 03015G22KT 26/18 A3022 RMK A01 T02560175  RH  064%=      5-min Rain = 0
KLES 141520Z 03013G19KT 26/17 A3022 RMK A01 T02570174  RH  063%=      5-min Rain = 0
KLES 141525Z 04014G21KT 26/17 A3022 RMK A01 T02590174  RH  062%=      5-min Rain = 0
KLES 141530Z 05013G22KT 26/17 A3022 RMK A01 T02590172  RH  062%=      5-min Rain = 0
KLES 141535Z 04012G17KT 26/17 A3022 RMK A01 T02620174  RH  061%=      5-min Rain = 0
KLES 141540Z 04014G20KT 27/17 A3022 RMK A01 T02650174  RH  061%=      5-min Rain = 0
KLES 141545Z 04012G18KT 27/18 A3021 RMK A01 T02670175  RH  060%=      5-min Rain = 0
KLES 141550Z 04011G17KT 27/18 A3022 RMK A01 T02720175  RH  058%=      5-min Rain = 0
KLES 141555Z 04015G21KT 27/17 A3022 RMK A01 T02710174  RH  058%=      5-min Rain = 0
KLES 141600Z 02013G19KT 27/17 A3022 RMK A01 T02740174  RH  057%=      5-min Rain = 0
KLES 141605Z 02014G19KT 28/17 A3022 RMK A01 T02760173  RH  056%=      5-min Rain = 0
KLES 141610Z 03012G17KT 28/17 A3022 RMK A01 T02760173  RH  056%=      5-min Rain = 0
KLES 141615Z 03012G20KT 28/17 A3022 RMK A01 T02780173  RH  055%=      5-min Rain = 0
KLES 141620Z 02013G20KT 28/17 A3021 RMK A01 T02810172  RH  054%=      5-min Rain = 0
KLES 141625Z 04012G19KT 28/17 A3021 RMK A01 T02810172  RH  054%=      5-min Rain = 0
KLES 141630Z 05011G17KT 29/17 A3021 RMK A01 T02850172  RH  053%=      5-min Rain = 0
KLES 141635Z 05012G19KT 29/17 A3021 RMK A01 T02860172  RH  053%=      5-min Rain = 0
KLES 141640Z 06010G16KT 29/17 A3021 RMK A01 T02890171  RH  051%=      5-min Rain = 0
KLES 141645Z 05012G18KT 29/17 A302 RMK A01 T02920169  RH  050%=      5-min Rain = 0
KLES 141650Z 06011KT 29/17 A302 RMK A01 T02930169  RH  050%=      5-min Rain = 0
KLES 141655Z 06013G18KT 29/17 A302 RMK A01 T02940168  RH  049%=      5-min Rain = 0
KLES 141700Z 06011G16KT 29/17 A302 RMK A01 T02920168  RH  049%=      5-min Rain = 0
KLES 141705Z 06008G13KT 30/17 A3019 RMK A01 T02970168  RH  048%=      5-min Rain = 0
KLES 141710Z 05011G17KT 30/17 A3019 RMK A01 T02990166  RH  047%=      5-min Rain = 0
KLES 141715Z 06010G15KT 30/17 A3019 RMK A01 T02990165  RH  047%=      5-min Rain = 0
KLES 141720Z 05010G15KT 30/16 A3019 RMK A01 T03010162  RH  045%=      5-min Rain = 0
KLES 141725Z 06010G16KT 30/16 A3019 RMK A01 T03030164  RH  045%=      5-min Rain = 0
KLES 141730Z 05010G15KT 31/16 A3019 RMK A01 T03090158  RH  042%=      5-min Rain = 0
KLES 141735Z 04011G16KT 31/16 A3019 RMK A01 T03090155  RH  041%=      5-min Rain = 0
KLES 141740Z 05009G15KT 31/16 A3019 RMK A01 T03100155  RH  041%=      5-min Rain = 0
KLES 141745Z 06012G19KT 31/15 A3018 RMK A01 T03130153  RH  040%=      5-min Rain = 0
KLES 141750Z 04010G15KT 31/16 A3018 RMK A01 T03090155  RH  041%=      5-min Rain = 0
KLES 141755Z 08011G19KT 32/16 A3018 RMK A01 T03150157  RH  040%=      5-min Rain = 0
KLES 141800Z 07010G16KT 31/15 A3017 RMK A01 T03140154  RH  040%=      5-min Rain = 0
KLES 141805Z 06009G15KT 32/16 A3017 RMK A01 T03160157  RH  040%=      5-min Rain = 0
KLES 141810Z 07011G18KT 31/16 A3017 RMK A01 T03140157  RH  041%=      5-min Rain = 0
KLES 141815Z 06009KT 31/16 A3017 RMK A01 T03130156  RH  041%=      5-min Rain = 0
KLES 141820Z 06009G17KT 31/15 A3017 RMK A01 T03140154  RH  040%=      5-min Rain = 0
KLES 141825Z 07012G17KT 32/16 A3016 RMK A01 T03170155  RH  039%=      5-min Rain = 0
KLES 141830Z 07011G16KT 32/15 A3016 RMK A01 T03160154  RH  039%=      5-min Rain = 0
KLES 141835Z 06010G16KT 32/15 A3016 RMK A01 T03180150  RH  038%=      5-min Rain = 0
KLES 141840Z 08012G19KT 32/15 A3015 RMK A01 T03200152  RH  038%=      5-min Rain = 0
KLES 141845Z 09010G17KT 32/15 A3015 RMK A01 T03210153  RH  038%=      5-min Rain = 0
KLES 141850Z 07012G21KT 32/16 A3015 RMK A01 T03220158  RH  039%=      5-min Rain = 0
KLES 141855Z 08011G17KT 32/16 A3015 RMK A01 T03220157  RH  039%=      5-min Rain = 0
KLES 141900Z 06011KT 32/15 A3015 RMK A01 T03220150  RH  037%=      5-min Rain = 0
KLES 141905Z 08011G18KT 33/15 A3015 RMK A01 T03280151  RH  036%=      5-min Rain = 0
KLES 141910Z 09010G15KT 33/15 A3015 RMK A01 T03280150  RH  036%=      5-min Rain = 0
KLES 141915Z 07011G18KT 33/15 A3015 RMK A01 T03280151  RH  036%=      5-min Rain = 0
KLES 141920Z 08013G19KT 33/14 A3015 RMK A01 T03270143  RH  034%=      5-min Rain = 0
KLES 141925Z 06010KT 33/13 A3015 RMK A01 T03290134  RH  032%=      5-min Rain = 0
KLES 141930Z 07008KT 33/14 A3014 RMK A01 T03300140  RH  033%=      5-min Rain = 0
KLES 141935Z 09011G17KT 34/14 A3014 RMK A01 T03350142  RH  033%=      5-min Rain = 0
KLES 141940Z 08010KT 33/14 A3014 RMK A01 T03320143  RH  033%=      5-min Rain = 0
KLES 141945Z 09010G16KT 34/14 A3013 RMK A01 T03350140  RH  032%=      5-min Rain = 0
KLES 141950Z 09008G13KT 34/14 A3013 RMK A01 T03350136  RH  031%=      5-min Rain = 0
KLES 141955Z 05009G17KT 34/13 A3013 RMK A01 T03350127  RH  029%=      5-min Rain = 0
KLES 142000Z 05011G16KT 34/12 A3012 RMK A01 T03350123  RH  029%=      5-min Rain = 0
KLES 142005Z 05009G14KT 34/13 A3012 RMK A01 T03370130  RH  030%=      5-min Rain = 0
KLES 142010Z 08008G14KT 34/13 A3012 RMK A01 T03380134  RH  030%=      5-min Rain = 0
KLES 142015Z 07007KT 34/13 A3011 RMK A01 T03400131  RH  029%=      5-min Rain = 0
KLES 142020Z 07007G13KT 34/13 A3011 RMK A01 T03430125  RH  028%=      5-min Rain = 0
KLES 142025Z 07010G15KT 35/12 A3011 RMK A01 T03450124  RH  027%=      5-min Rain = 0
KLES 142030Z 07009KT 34/13 A301 RMK A01 T03420129  RH  029%=      5-min Rain = 0
KLES 142035Z 06009G15KT 34/13 A301 RMK A01 T03420125  RH  028%=      5-min Rain = 0
KLES 142040Z 05008G17KT 35/12 A301 RMK A01 T03480122  RH  027%=      5-min Rain = 0
KLES 142045Z 03009G14KT 35/11 A301 RMK A01 T03470110  RH  024%=      5-min Rain = 0
KLES 142050Z 03010KT 35/11 A301 RMK A01 T03480113  RH  025%=      5-min Rain = 0
KLES 142055Z 06009G15KT 35/12 A3009 RMK A01 T03450121  RH  027%=      5-min Rain = 0
KLES 142100Z 05009G15KT 35/12 A3009 RMK A01 T03510117  RH  025%=      5-min Rain = 0
KLES 142105Z 07009G14KT 35/12 A3009 RMK A01 T03510117  RH  025%=      5-min Rain = 0
KLES 142110Z 06009G15KT 35/12 A3009 RMK A01 T03500118  RH  025%=      5-min Rain = 0
KLES 142115Z 07008KT 35/12 A3009 RMK A01 T03470116  RH  026%=      5-min Rain = 0
KLES 142120Z 08010G15KT 35/11 A3009 RMK A01 T03500113  RH  025%=      5-min Rain = 0
KLES 142125Z 08009KT 35/11 A3009 RMK A01 T03500114  RH  025%=      5-min Rain = 0
KLES 142130Z 04009G17KT 35/11 A3009 RMK A01 T03510110  RH  024%=      5-min Rain = 0
KLES 142135Z 06009G15KT 35/11 A3009 RMK A01 T03480110  RH  024%=      5-min Rain = 0
KLES 142140Z 09009KT 35/11 A3008 RMK A01 T03500110  RH  024%=      5-min Rain = 0
KLES 142145Z 09007KT 35/11 A3008 RMK A01 T03540109  RH  023%=      5-min Rain = 0
KLES 142150Z 04007G13KT 35/10 A3008 RMK A01 T03530103  RH  023%=      5-min Rain = 0
KLES 142155Z 08008G13KT 35/10 A3008 RMK A01 T03530103  RH  023%=      5-min Rain = 0
KLES 142200Z 07010G16KT 35/11 A3008 RMK A01 T03500107  RH  024%=      5-min Rain = 0
KLES 142205Z 08009G15KT 35/11 A3008 RMK A01 T03490107  RH  024%=      5-min Rain = 0
KLES 142210Z 08009G15KT 35/11 A3007 RMK A01 T03510106  RH  023%=      5-min Rain = 0
KLES 142215Z 09011G17KT 35/10 A3007 RMK A01 T03510104  RH  023%=      5-min Rain = 0
KLES 142220Z 08008KT 35/10 A3007 RMK A01 T03500100  RH  023%=      5-min Rain = 0
KLES 142225Z 09011G16KT 35/10 A3007 RMK A01 T03520098  RH  022%=      5-min Rain = 0
KLES 142230Z 08009KT 35/10 A3007 RMK A01 T03540097  RH  022%=      5-min Rain = 0
KLES 142235Z 11007G13KT 35/10 A3007 RMK A01 T03530095  RH  021%=      5-min Rain = 0
KLES 142240Z 08010G16KT 35/10 A3007 RMK A01 T03540097  RH  022%=      5-min Rain = 0
KLES 142245Z 08008G15KT 35/10 A3006 RMK A01 T03530097  RH  022%=      5-min Rain = 0
KLES 142250Z 09007G12KT 35/10 A3006 RMK A01 T03530098  RH  022%=      5-min Rain = 0
KLES 142255Z 08009G15KT 35/10 A3006 RMK A01 T03530097  RH  022%=      5-min Rain = 0
KLES 142300Z 09006KT 35/10 A3006 RMK A01 T03510096  RH  022%=      5-min Rain = 0
KLES 142305Z 09011G17KT 35/10 A3006 RMK A01 T03530101  RH  022%=      5-min Rain = 0
KLES 142310Z 09009KT 35/10 A3006 RMK A01 T03520102  RH  023%=      5-min Rain = 0
KLES 142315Z 10008KT 35/10 A3006 RMK A01 T03500101  RH  023%=      5-min Rain = 0
KLES 142320Z 12006KT 35/10 A3006 RMK A01 T03510101  RH  022%=      5-min Rain = 0
KLES 142325Z 08009G19KT 35/10 A3006 RMK A01 T03510102  RH  023%=      5-min Rain = 0
KLES 142330Z 11009KT 35/10 A3006 RMK A01 T03500103  RH  023%=      5-min Rain = 0
KLES 142335Z 08008KT 35/10 A3006 RMK A01 T03490101  RH  023%=      5-min Rain = 0
KLES 142340Z 06007KT 35/10 A3006 RMK A01 T03480099  RH  023%=      5-min Rain = 0
KLES 142345Z 09011G17KT 35/11 A3005 RMK A01 T03500105  RH  023%=      5-min Rain = 0
KLES 142350Z 10011KT 35/10 A3005 RMK A01 T03480104  RH  023%=      5-min Rain = 0
KLES 142355Z 10011KT 35/10 A3005 RMK A01 T03490104  RH  023%=      5-min Rain = 0
KLES 150000Z 10010KT 35/10 A3005 RMK A01 T03480103  RH  023%=      5-min Rain = 0
KLES 150005Z 10008KT 35/11 A3005 RMK A01 T03470108  RH  024%=      5-min Rain = 0
KLES 150010Z 09009KT 35/11 A3006 RMK A01 T03460113  RH  025%=      5-min Rain = 0
KLES 150015Z 07007G12KT 35/11 A3006 RMK A01 T03450112  RH  025%=      5-min Rain = 0
KLES 150020Z 10008G14KT 34/11 A3006 RMK A01 T03440111  RH  025%=      5-min Rain = 0
KLES 150025Z 10010KT 34/11 A3006 RMK A01 T03430112  RH  025%=      5-min Rain = 0
KLES 150030Z 10008KT 34/11 A3006 RMK A01 T03410111  RH  026%=      5-min Rain = 0
KLES 150035Z 09007KT 34/11 A3006 RMK A01 T03410113  RH  026%=      5-min Rain = 0
KLES 150040Z 09010KT 34/12 A3006 RMK A01 T03390120  RH  027%=      5-min Rain = 0
KLES 150045Z 10009KT 34/12 A3006 RMK A01 T03370120  RH  028%=      5-min Rain = 0
KLES 150050Z 10009G14KT 34/12 A3006 RMK A01 T03360123  RH  029%=      5-min Rain = 0
KLES 150055Z 11009KT 33/12 A3006 RMK A01 T03330124  RH  029%=      5-min Rain = 0
KLES 150100Z 11007G12KT 33/12 A3007 RMK A01 T03320124  RH  029%=      5-min Rain = 0
KLES 150105Z 10009G14KT 33/13 A3007 RMK A01 T03300126  RH  030%=      5-min Rain = 0
KLES 150110Z 10008KT 33/13 A3007 RMK A01 T03290127  RH  031%=      5-min Rain = 0
KLES 150115Z 10008KT 33/13 A3007 RMK A01 T03270128  RH  031%=      5-min Rain = 0
KLES 150120Z 10008KT 32/13 A3007 RMK A01 T03240129  RH  032%=      5-min Rain = 0
KLES 150125Z 10008KT 32/13 A3007 RMK A01 T03230130  RH  032%=      5-min Rain = 0
KLES 150130Z 10008KT 32/13 A3008 RMK A01 T03200131  RH  033%=      5-min Rain = 0
KLES 150135Z 10009KT 32/14 A3008 RMK A01 T03180135  RH  034%=      5-min Rain = 0
KLES 150140Z 10009KT 32/14 A3008 RMK A01 T03170137  RH  035%=      5-min Rain = 0
KLES 150145Z 09009KT 32/14 A3008 RMK A01 T03160138  RH  035%=      5-min Rain = 0
KLES 150150Z 09009KT 31/14 A3009 RMK A01 T03140139  RH  036%=      5-min Rain = 0
KLES 150155Z 09009KT 31/14 A3009 RMK A01 T03130139  RH  036%=      5-min Rain = 0
KLES 150200Z 09008KT 31/14 A3009 RMK A01 T03110140  RH  037%=      5-min Rain = 0
KLES 150205Z 09010KT 31/14 A301 RMK A01 T03100141  RH  037%=      5-min Rain = 0
KLES 150210Z 09008KT 31/14 A301 RMK A01 T03090142  RH  038%=      5-min Rain = 0
KLES 150215Z 09008KT 31/14 A301 RMK A01 T03070142  RH  038%=      5-min Rain = 0
KLES 150220Z 10008KT 31/14 A3011 RMK A01 T03060142  RH  039%=      5-min Rain = 0
KLES 150225Z 10007KT 30/14 A3011 RMK A01 T03040143  RH  039%=      5-min Rain = 0
KLES 150230Z 10007KT 30/14 A3011 RMK A01 T03020143  RH  040%=      5-min Rain = 0
KLES 150235Z 10007KT 30/14 A3011 RMK A01 T03000142  RH  040%=      5-min Rain = 0
KLES 150240Z 09008KT 30/14 A3011 RMK A01 T02990142  RH  040%=      5-min Rain = 0
KLES 150245Z 09007KT 30/14 A3012 RMK A01 T02990141  RH  040%=      5-min Rain = 0
KLES 150250Z 09008KT 30/14 A3012 RMK A01 T02990141  RH  040%=      5-min Rain = 0
KLES 150255Z 09009KT 30/14 A3012 RMK A01 T02990140  RH  039%=      5-min Rain = 0
KLES 150300Z 09008KT 30/14 A3012 RMK A01 T02990139  RH  039%=      5-min Rain = 0
KLES 150305Z 09008KT 30/14 A3013 RMK A01 T02980139  RH  039%=      5-min Rain = 0
KLES 150310Z 10007KT 30/14 A3013 RMK A01 T02960140  RH  040%=      5-min Rain = 0
KLES 150315Z 09006KT 29/14 A3013 RMK A01 T02920140  RH  041%=      5-min Rain = 0
KLES 150320Z 09007KT 29/14 A3013 RMK A01 T02900140  RH  042%=      5-min Rain = 0
KLES 150325Z 09007KT 29/14 A3013 RMK A01 T02900141  RH  042%=      5-min Rain = 0
KLES 150330Z 09008KT 29/14 A3013 RMK A01 T02900140  RH  042%=      5-min Rain = 0
KLES 150335Z 10008KT 29/14 A3013 RMK A01 T02890141  RH  042%=      5-min Rain = 0
KLES 150340Z 10007KT 29/14 A3013 RMK A01 T02880141  RH  042%=      5-min Rain = 0
KLES 150345Z 11007KT 29/14 A3014 RMK A01 T02870142  RH  043%=      5-min Rain = 0
KLES 150350Z 10008KT 29/14 A3014 RMK A01 T02850143  RH  043%=      5-min Rain = 0
KLES 150355Z 10008KT 29/14 A3014 RMK A01 T02850143  RH  044%=      5-min Rain = 0
KLES 150400Z 09008KT 28/14 A3014 RMK A01 T02840143  RH  044%=      5-min Rain = 0
KLES 150405Z 09008KT 28/14 A3014 RMK A01 T02830143  RH  044%=      5-min Rain = 0
KLES 150410Z 10008KT 28/14 A3014 RMK A01 T02830144  RH  044%=      5-min Rain = 0
KLES 150415Z 10007KT 28/14 A3014 RMK A01 T02810144  RH  045%=      5-min Rain = 0
KLES 150420Z 09007KT 28/14 A3014 RMK A01 T02800144  RH  045%=      5-min Rain = 0
KLES 150425Z 09007KT 28/15 A3014 RMK A01 T02810145  RH  045%=      5-min Rain = 0
KLES 150430Z 09008KT 28/15 A3014 RMK A01 T02820145  RH  045%=      5-min Rain = 0
KLES 150435Z 08006KT 28/15 A3014 RMK A01 T02820146  RH  045%=      5-min Rain = 0
KLES 150440Z 09005KT 28/15 A3014 RMK A01 T02810145  RH  046%=      5-min Rain = 0
KLES 150445Z 16008KT 28/15 A3015 RMK A01 T02760148  RH  048%=      5-min Rain = 0
KLES 150450Z 13007KT 27/15 A3015 RMK A01 T02730149  RH  049%=      5-min Rain = 0
KLES 150455Z 13007G12KT 28/15 A3015 RMK A01 T02760148  RH  048%=      5-min Rain = 0

Page generated in 0.009 seconds.